sensor_id;sensor_type;location;lat;lon;timestamp;pressure;altitude;pressure_sealevel;temperature;humidity
64243;BME280;50573;51.512;5.386;2023-03-13T00:05:14;99999.09;;;9.95;100.00
64243;BME280;50573;51.512;5.386;2023-03-13T00:15:17;99975.00;;;9.84;100.00
64243;BME280;50573;51.512;5.386;2023-03-13T00:25:21;99944.59;;;9.76;100.00
64243;BME280;50573;51.512;5.386;2023-03-13T00:35:24;99920.72;;;9.71;100.00
64243;BME280;50573;51.512;5.386;2023-03-13T00:45:29;99901.69;;;9.71;100.00
64243;BME280;50573;51.512;5.386;2023-03-13T00:55:32;99870.91;;;9.83;100.00
64243;BME280;50573;51.512;5.386;2023-03-13T01:05:36;99860.75;;;9.84;100.00
64243;BME280;50573;51.512;5.386;2023-03-13T01:15:39;99826.50;;;9.96;100.00
64243;BME280;50573;51.512;5.386;2023-03-13T01:25:44;99806.47;;;10.11;100.00
64243;BME280;50573;51.512;5.386;2023-03-13T01:35:47;99799.81;;;10.30;100.00
64243;BME280;50573;51.512;5.386;2023-03-13T01:46:13;99766.22;;;10.42;100.00
64243;BME280;50573;51.512;5.386;2023-03-13T01:56:33;99746.22;;;10.63;100.00
64243;BME280;50573;51.512;5.386;2023-03-13T02:06:41;99723.47;;;10.84;100.00
64243;BME280;50573;51.512;5.386;2023-03-13T02:16:45;99697.81;;;11.00;100.00
64243;BME280;50573;51.512;5.386;2023-03-13T02:26:54;99656.88;;;11.09;100.00
64243;BME280;50573;51.512;5.386;2023-03-13T02:36:58;99662.44;;;11.14;100.00
64243;BME280;50573;51.512;5.386;2023-03-13T02:47:05;99653.94;;;11.22;100.00
64243;BME280;50573;51.512;5.386;2023-03-13T02:57:10;99637.44;;;11.40;100.00
64243;BME280;50573;51.512;5.386;2023-03-13T03:07:15;99641.13;;;11.51;100.00
64243;BME280;50573;51.512;5.386;2023-03-13T03:17:18;99644.53;;;11.61;100.00
64243;BME280;50573;51.512;5.386;2023-03-13T03:27:23;99649.69;;;11.68;100.00
64243;BME280;50573;51.512;5.386;2023-03-13T03:37:28;99624.13;;;11.80;100.00
64243;BME280;50573;51.512;5.386;2023-03-13T03:47:35;99619.78;;;11.73;100.00
64243;BME280;50573;51.512;5.386;2023-03-13T03:57:38;99611.44;;;11.91;100.00
64243;BME280;50573;51.512;5.386;2023-03-13T04:07:47;99623.56;;;12.05;100.00
64243;BME280;50573;51.512;5.386;2023-03-13T04:17:50;99608.59;;;12.15;100.00
64243;BME280;50573;51.512;5.386;2023-03-13T04:27:57;99587.47;;;12.44;100.00
64243;BME280;50573;51.512;5.386;2023-03-13T04:38:06;99574.19;;;12.52;100.00
64243;BME280;50573;51.512;5.386;2023-03-13T04:48:26;99550.50;;;12.64;100.00
64243;BME280;50573;51.512;5.386;2023-03-13T04:58:55;99551.59;;;12.72;100.00
64243;BME280;50573;51.512;5.386;2023-03-13T05:09:26;99533.78;;;12.96;100.00
64243;BME280;50573;51.512;5.386;2023-03-13T05:19:54;99529.97;;;13.08;100.00
64243;BME280;50573;51.512;5.386;2023-03-13T05:30:12;99519.19;;;13.19;100.00
64243;BME280;50573;51.512;5.386;2023-03-13T05:40:28;99512.19;;;13.18;100.00
64243;BME280;50573;51.512;5.386;2023-03-13T05:50:32;99525.16;;;13.23;100.00
64243;BME280;50573;51.512;5.386;2023-03-13T06:00:53;99528.19;;;13.25;100.00
64243;BME280;50573;51.512;5.386;2023-03-13T06:11:21;99533.16;;;13.27;100.00
64243;BME280;50573;51.512;5.386;2023-03-13T06:21:24;99524.31;;;13.37;100.00
64243;BME280;50573;51.512;5.386;2023-03-13T06:31:29;99523.41;;;13.46;100.00
64243;BME280;50573;51.512;5.386;2023-03-13T06:41:32;99501.75;;;13.42;100.00
64243;BME280;50573;51.512;5.386;2023-03-13T06:51:36;99513.03;;;13.50;100.00
64243;BME280;50573;51.512;5.386;2023-03-13T07:01:39;99507.16;;;13.62;99.11
64243;BME280;50573;51.512;5.386;2023-03-13T07:11:45;99514.13;;;13.63;99.04
64243;BME280;50573;51.512;5.386;2023-03-13T07:21:48;99495.59;;;13.78;97.14
64243;BME280;50573;51.512;5.386;2023-03-13T07:31:54;99489.16;;;13.81;96.83
64243;BME280;50573;51.512;5.386;2023-03-13T07:41:57;99504.97;;;13.98;95.94
64243;BME280;50573;51.512;5.386;2023-03-13T07:52:03;99505.94;;;13.94;96.11
64243;BME280;50573;51.512;5.386;2023-03-13T08:02:07;99509.44;;;13.95;96.19
64243;BME280;50573;51.512;5.386;2023-03-13T08:12:13;99498.50;;;14.32;94.36
64243;BME280;50573;51.512;5.386;2023-03-13T08:22:16;99470.97;;;14.52;92.33
64243;BME280;50573;51.512;5.386;2023-03-13T08:32:20;99488.19;;;14.58;91.14
64243;BME280;50573;51.512;5.386;2023-03-13T08:42:23;99477.06;;;14.78;89.36
64243;BME280;50573;51.512;5.386;2023-03-13T08:52:28;99484.38;;;14.97;88.35
64243;BME280;50573;51.512;5.386;2023-03-13T09:02:31;99461.66;;;14.86;88.78
64243;BME280;50573;51.512;5.386;2023-03-13T09:12:35;99468.19;;;15.16;88.28
64243;BME280;50573;51.512;5.386;2023-03-13T09:22:38;99447.25;;;15.07;89.61
64243;BME280;50573;51.512;5.386;2023-03-13T09:32:43;99411.09;;;15.09;89.19
64243;BME280;50573;51.512;5.386;2023-03-13T09:42:46;99398.91;;;15.32;87.08
64243;BME280;50573;51.512;5.386;2023-03-13T09:52:53;99385.66;;;15.91;83.46
64243;BME280;50573;51.512;5.386;2023-03-13T10:03:03;99403.06;;;16.21;80.72
64243;BME280;50573;51.512;5.386;2023-03-13T10:13:14;99377.81;;;16.23;79.60
64243;BME280;50573;51.512;5.386;2023-03-13T10:23:24;99368.28;;;16.40;78.68
64243;BME280;50573;51.512;5.386;2023-03-13T10:33:31;99364.50;;;16.49;76.95
64243;BME280;50573;51.512;5.386;2023-03-13T10:43:34;99356.50;;;16.51;76.21
64243;BME280;50573;51.512;5.386;2023-03-13T10:53:40;99350.44;;;16.63;77.01
64243;BME280;50573;51.512;5.386;2023-03-13T11:03:44;99347.13;;;16.76;77.22
64243;BME280;50573;51.512;5.386;2023-03-13T11:13:48;99341.66;;;16.71;73.56
64243;BME280;50573;51.512;5.386;2023-03-13T11:23:55;99337.50;;;16.94;71.33
64243;BME280;50573;51.512;5.386;2023-03-13T11:34:07;99314.50;;;16.91;66.20
64243;BME280;50573;51.512;5.386;2023-03-13T11:44:23;99319.59;;;17.11;68.77
64243;BME280;50573;51.512;5.386;2023-03-13T11:54:45;99284.53;;;17.17;66.60
64243;BME280;50573;51.512;5.386;2023-03-13T12:04:55;99293.78;;;17.20;66.58
64243;BME280;50573;51.512;5.386;2023-03-13T12:15:06;99260.69;;;17.25;67.53
64243;BME280;50573;51.512;5.386;2023-03-13T12:25:13;99243.75;;;17.16;67.30
64243;BME280;50573;51.512;5.386;2023-03-13T12:35:26;99233.91;;;17.26;66.25
64243;BME280;50573;51.512;5.386;2023-03-13T12:45:31;99209.03;;;17.61;63.36
64243;BME280;50573;51.512;5.386;2023-03-13T12:56:18;99176.72;;;17.80;59.61
64243;BME280;50573;51.512;5.386;2023-03-13T13:06:23;99193.13;;;18.10;57.61
64243;BME280;50573;51.512;5.386;2023-03-13T13:16:28;99179.78;;;17.95;58.24
64243;BME280;50573;51.512;5.386;2023-03-13T13:26:37;99176.72;;;17.80;61.92
64243;BME280;50573;51.512;5.386;2023-03-13T13:36:41;99167.56;;;18.09;63.37
64243;BME280;50573;51.512;5.386;2023-03-13T13:46:46;99156.09;;;17.86;63.13
64243;BME280;50573;51.512;5.386;2023-03-13T13:56:51;99136.16;;;17.80;62.90
64243;BME280;50573;51.512;5.386;2023-03-13T14:07:01;99127.38;;;17.82;62.73
64243;BME280;50573;51.512;5.386;2023-03-13T14:17:08;99114.59;;;17.66;61.46
64243;BME280;50573;51.512;5.386;2023-03-13T14:27:15;99120.56;;;17.70;60.94
64243;BME280;50573;51.512;5.386;2023-03-13T14:37:35;99116.09;;;17.67;60.91
64243;BME280;50573;51.512;5.386;2023-03-13T14:47:38;99094.63;;;17.97;60.98
64243;BME280;50573;51.512;5.386;2023-03-13T14:57:56;99086.81;;;18.14;60.47
64243;BME280;50573;51.512;5.386;2023-03-13T15:07:59;99074.69;;;17.91;60.80
64243;BME280;50573;51.512;5.386;2023-03-13T15:18:14;99046.78;;;17.94;57.82
64243;BME280;50573;51.512;5.386;2023-03-13T15:28:20;99048.56;;;17.79;58.03
64243;BME280;50573;51.512;5.386;2023-03-13T15:38:26;99011.75;;;17.45;58.31
64243;BME280;50573;51.512;5.386;2023-03-13T15:48:29;98995.66;;;17.30;57.35
64243;BME280;50573;51.512;5.386;2023-03-13T15:58:34;98969.94;;;17.09;56.19
64243;BME280;50573;51.512;5.386;2023-03-13T16:08:37;98950.91;;;16.93;57.01
64243;BME280;50573;51.512;5.386;2023-03-13T16:18:41;98932.63;;;16.77;56.54
64243;BME280;50573;51.512;5.386;2023-03-13T16:28:44;98930.91;;;16.55;58.44
64243;BME280;50573;51.512;5.386;2023-03-13T16:38:52;98917.63;;;16.35;60.92
64243;BME280;50573;51.512;5.386;2023-03-13T16:48:56;98928.53;;;16.16;61.68
64243;BME280;50573;51.512;5.386;2023-03-13T16:59:03;98921.94;;;16.06;61.99
64243;BME280;50573;51.512;5.386;2023-03-13T17:09:11;98914.50;;;16.01;61.35
64243;BME280;50573;51.512;5.386;2023-03-13T17:19:16;98904.19;;;15.83;62.53
64243;BME280;50573;51.512;5.386;2023-03-13T17:29:19;98890.63;;;15.61;62.75
64243;BME280;50573;51.512;5.386;2023-03-13T17:39:25;98910.53;;;15.43;63.84
64243;BME280;50573;51.512;5.386;2023-03-13T17:49:28;98894.66;;;15.25;64.81
64243;BME280;50573;51.512;5.386;2023-03-13T17:59:33;98884.78;;;15.11;65.43
64243;BME280;50573;51.512;5.386;2023-03-13T18:09:36;98888.63;;;14.91;66.14
64243;BME280;50573;51.512;5.386;2023-03-13T18:19:40;98871.53;;;14.80;67.00
64243;BME280;50573;51.512;5.386;2023-03-13T18:29:46;98860.16;;;14.65;68.05
64243;BME280;50573;51.512;5.386;2023-03-13T18:39:51;98833.84;;;14.51;68.15
64243;BME280;50573;51.512;5.386;2023-03-13T18:49:56;98827.38;;;14.43;68.53
64243;BME280;50573;51.512;5.386;2023-03-13T19:00:00;98805.31;;;14.24;69.63
64243;BME280;50573;51.512;5.386;2023-03-13T19:10:18;98816.56;;;14.10;70.30
64243;BME280;50573;51.512;5.386;2023-03-13T19:20:22;98815.66;;;13.90;71.45
64243;BME280;50573;51.512;5.386;2023-03-13T19:30:26;98794.81;;;13.65;72.62
64243;BME280;50573;51.512;5.386;2023-03-13T19:40:30;98773.69;;;13.60;73.27
64243;BME280;50573;51.512;5.386;2023-03-13T19:50:34;98759.28;;;13.49;74.99
64243;BME280;50573;51.512;5.386;2023-03-13T20:00:38;98762.78;;;13.55;76.13
64243;BME280;50573;51.512;5.386;2023-03-13T20:10:41;98774.97;;;13.37;77.30
64243;BME280;50573;51.512;5.386;2023-03-13T20:20:47;98774.53;;;13.11;79.38
64243;BME280;50573;51.512;5.386;2023-03-13T20:30:52;98776.97;;;12.93;81.95
64243;BME280;50573;51.512;5.386;2023-03-13T20:40:57;98773.28;;;13.01;82.96
64243;BME280;50573;51.512;5.386;2023-03-13T20:51:00;98789.69;;;13.01;84.60
64243;BME280;50573;51.512;5.386;2023-03-13T21:01:05;98805.81;;;13.10;85.54
64243;BME280;50573;51.512;5.386;2023-03-13T21:11:13;98789.16;;;13.25;85.47
64243;BME280;50573;51.512;5.386;2023-03-13T21:21:18;98780.69;;;13.45;85.10
64243;BME280;50573;51.512;5.386;2023-03-13T21:31:23;98762.56;;;13.36;85.63
64243;BME280;50573;51.512;5.386;2023-03-13T21:41:27;98744.47;;;13.11;86.50
64243;BME280;50573;51.512;5.386;2023-03-13T21:51:30;98739.22;;;12.80;88.11
64243;BME280;50573;51.512;5.386;2023-03-13T22:01:35;98726.06;;;12.68;88.84
64243;BME280;50573;51.512;5.386;2023-03-13T22:11:38;98727.31;;;12.61;89.13
64243;BME280;50573;51.512;5.386;2023-03-13T22:21:42;98710.16;;;12.55;88.66
64243;BME280;50573;51.512;5.386;2023-03-13T22:31:45;98717.63;;;12.49;89.26
64243;BME280;50573;51.512;5.386;2023-03-13T22:41:50;98713.16;;;12.46;88.83
64243;BME280;50573;51.512;5.386;2023-03-13T22:51:53;98721.34;;;12.46;88.57
64243;BME280;50573;51.512;5.386;2023-03-13T23:01:57;98715.63;;;12.49;88.36
64243;BME280;50573;51.512;5.386;2023-03-13T23:12:00;98706.94;;;12.56;87.47
64243;BME280;50573;51.512;5.386;2023-03-13T23:22:05;98692.03;;;12.63;86.94
64243;BME280;50573;51.512;5.386;2023-03-13T23:32:08;98698.25;;;12.52;89.97
64243;BME280;50573;51.512;5.386;2023-03-13T23:42:12;98715.34;;;12.20;93.30
64243;BME280;50573;51.512;5.386;2023-03-13T23:52:15;98710.56;;;11.93;94.31
